createdAt,value
2023-04-10T00:01:36.384Z,2.77
2023-04-10T00:04:05.060Z,2.33
2023-04-10T00:06:33.728Z,2.13
2023-04-10T00:09:01.963Z,2.03
2023-04-10T00:11:31.043Z,3.43
2023-04-10T00:13:59.265Z,2.53
2023-04-10T00:16:27.686Z,2.30
2023-04-10T00:18:57.180Z,2.30
2023-04-10T00:21:25.270Z,41.47
2023-04-10T00:23:53.526Z,1.60
2023-04-10T00:26:23.922Z,1.67
2023-04-10T00:28:52.017Z,1.93
2023-04-10T00:31:20.212Z,1.73
2023-04-10T00:33:49.505Z,1.80
2023-04-10T00:36:20.007Z,1.63
2023-04-10T00:38:49.864Z,1.23
2023-04-10T00:41:19.034Z,2.13
2023-04-10T00:43:47.080Z,2.73
2023-04-10T00:46:15.390Z,2.23
2023-04-10T00:48:43.684Z,3.60
2023-04-10T00:51:13.717Z,2.50
2023-04-10T00:53:43.369Z,5.50
2023-04-10T00:56:11.493Z,4.77
2023-04-10T00:58:39.945Z,3.37
2023-04-10T01:01:08.927Z,2.20
2023-04-10T01:03:37.852Z,4.03
2023-04-10T01:06:13.889Z,2.00
2023-04-10T01:08:54.805Z,2.47
2023-04-10T01:11:31.075Z,2.70
2023-04-10T01:14:07.586Z,3.90
2023-04-10T01:16:44.520Z,2.23
2023-04-10T01:19:26.137Z,3.90
2023-04-10T01:21:56.183Z,2.30
2023-04-10T01:24:43.235Z,5.27
2023-04-10T01:27:18.746Z,7.13
2023-04-10T01:29:57.830Z,3.40
2023-04-10T01:32:26.857Z,6.43
2023-04-10T01:34:58.773Z,2.17
2023-04-10T01:37:36.439Z,6.03
2023-04-10T01:40:07.384Z,3.53
2023-04-10T01:42:40.402Z,4.00
2023-04-10T01:45:13.638Z,3.10
2023-04-10T01:47:41.807Z,2.67
2023-04-10T01:50:11.271Z,6.33
2023-04-10T01:52:39.591Z,5.50
2023-04-10T01:55:10.296Z,5.87
2023-04-10T01:57:38.438Z,2.90
2023-04-10T02:00:07.885Z,4.60
2023-04-10T02:02:38.726Z,6.60
2023-04-10T02:05:07.529Z,2.50
2023-04-10T02:07:46.718Z,1.47
2023-04-10T02:10:21.507Z,3.97
2023-04-10T02:12:55.772Z,3.67
2023-04-10T02:15:25.488Z,4.50
2023-04-10T02:17:57.493Z,4.03
2023-04-10T02:20:26.722Z,2.20
2023-04-10T02:22:55.742Z,2.30
2023-04-10T02:25:23.898Z,2.70
2023-04-10T02:27:52.026Z,3.77
2023-04-10T02:30:20.172Z,2.47
2023-04-10T02:32:48.436Z,2.13
2023-04-10T02:35:18.240Z,5.03
2023-04-10T02:37:47.747Z,2.23
2023-04-10T02:40:15.888Z,3.83
2023-04-10T02:42:44.231Z,2.60
2023-04-10T02:45:12.840Z,2.43
2023-04-10T02:47:41.557Z,1.80
2023-04-10T02:50:10.982Z,1.70
2023-04-10T02:52:40.861Z,2.27
2023-04-10T02:55:09.474Z,3.27
2023-04-10T02:57:37.637Z,2.57
2023-04-10T03:00:06.646Z,2.50
2023-04-10T03:02:40.053Z,2.23
2023-04-10T03:05:09.569Z,1.90
2023-04-10T03:07:38.443Z,1.10
2023-04-10T03:10:09.572Z,1.77
2023-04-10T03:12:37.705Z,1.73
2023-04-10T03:15:08.131Z,1.20
2023-04-10T03:17:36.317Z,1.83
2023-04-10T03:20:04.885Z,1.97
2023-04-10T03:22:33.231Z,1.40
2023-04-10T03:25:01.700Z,3.43
2023-04-10T03:27:35.175Z,2.40
2023-04-10T03:30:04.005Z,2.57
2023-04-10T03:32:32.466Z,2.10
2023-04-10T03:35:00.859Z,4.20
2023-04-10T03:37:32.223Z,3.90
2023-04-10T03:40:00.583Z,9.90
2023-04-10T03:42:28.724Z,12.60
2023-04-10T03:44:58.696Z,1.60
2023-04-10T03:47:27.473Z,31.10
2023-04-10T03:49:56.542Z,42.00
2023-04-10T03:52:25.297Z,63.37
2023-04-10T03:54:53.779Z,30.40
2023-04-10T03:57:21.972Z,17.70
2023-04-10T03:59:51.955Z,23.53
2023-04-10T04:02:22.974Z,27.20
2023-04-10T04:04:51.724Z,18.90
2023-04-10T04:07:20.003Z,7.77
2023-04-10T04:09:50.265Z,2.53
2023-04-10T04:12:18.218Z,3.53
2023-04-10T04:14:46.659Z,1.90
2023-04-10T04:17:15.233Z,3.57
2023-04-10T04:19:44.784Z,1.60
2023-04-10T04:22:13.548Z,1.63
2023-04-10T04:24:41.724Z,1.57
2023-04-10T04:27:10.261Z,3.73
2023-04-10T04:29:39.921Z,5.37
2023-04-10T04:32:17.465Z,7.93
2023-04-10T04:34:48.666Z,4.40
2023-04-10T04:37:17.442Z,15.17
2023-04-10T04:39:46.002Z,9.93
2023-04-10T04:42:14.154Z,15.97
2023-04-10T04:44:42.231Z,15.73
2023-04-10T04:47:10.662Z,19.90
2023-04-10T04:49:40.931Z,21.03
2023-04-10T04:52:54.047Z,17.60
2023-04-10T04:55:27.444Z,17.93
2023-04-10T04:58:19.956Z,15.20
2023-04-10T05:00:49.201Z,10.93
2023-04-10T05:03:18.052Z,6.60
2023-04-10T05:05:47.653Z,10.50
2023-04-10T05:08:16.517Z,7.40
2023-04-10T05:10:47.084Z,7.03
2023-04-10T05:13:16.046Z,6.50
2023-04-10T05:15:45.005Z,1.17
2023-04-10T05:18:14.278Z,2.30
2023-04-10T05:20:45.558Z,2.37
2023-04-10T05:23:14.243Z,2.03
2023-04-10T05:25:42.478Z,3.53
2023-04-10T05:28:12.301Z,1.80
2023-04-10T05:30:40.558Z,2.07
2023-04-10T05:33:09.086Z,4.83
2023-04-10T05:35:37.496Z,4.17
2023-04-10T05:38:05.578Z,4.97
2023-04-10T05:40:33.786Z,5.83
2023-04-10T05:43:02.099Z,3.93
2023-04-10T05:45:31.562Z,5.43
2023-04-10T05:47:59.587Z,6.60
2023-04-10T05:50:28.687Z,7.23
2023-04-10T05:52:58.676Z,4.67
2023-04-10T05:55:26.616Z,11.10
2023-04-10T05:57:54.678Z,13.23
2023-04-10T06:00:22.658Z,18.90
2023-04-10T06:02:52.812Z,21.57
2023-04-10T06:05:21.834Z,17.47
2023-04-10T06:07:49.966Z,11.80
2023-04-10T06:10:18.313Z,9.47
2023-04-10T06:12:47.026Z,10.57
2023-04-10T06:15:15.033Z,8.27
2023-04-10T06:17:44.479Z,13.43
2023-04-10T06:20:14.560Z,10.90
2023-04-10T06:22:42.695Z,9.87
2023-04-10T06:25:11.591Z,18.00
2023-04-10T06:27:39.980Z,16.67
2023-04-10T06:30:09.988Z,18.30
2023-04-10T06:32:38.649Z,11.60
2023-04-10T06:35:07.951Z,12.53
2023-04-10T06:37:37.652Z,19.70
2023-04-10T06:40:08.855Z,14.70
2023-04-10T06:42:37.824Z,17.97
2023-04-10T06:45:06.994Z,17.77
2023-04-10T06:47:35.818Z,12.53
2023-04-10T06:50:04.296Z,13.00
2023-04-10T06:52:33.996Z,18.27
2023-04-10T06:55:03.592Z,23.17
2023-04-10T06:57:33.003Z,15.37
2023-04-10T07:00:02.015Z,15.33
2023-04-10T07:02:31.187Z,11.70
2023-04-10T07:04:59.424Z,23.37
2023-04-10T07:07:30.038Z,14.67
2023-04-10T07:09:58.701Z,16.33
2023-04-10T07:12:29.438Z,13.40
2023-04-10T07:14:57.502Z,14.10
2023-04-10T07:17:26.231Z,17.20
2023-04-10T07:19:58.992Z,16.50
2023-04-10T07:22:31.534Z,10.03
2023-04-10T07:25:01.651Z,15.43
2023-04-10T07:27:31.369Z,11.97
2023-04-10T07:29:59.773Z,15.30
2023-04-10T07:32:28.525Z,21.43
2023-04-10T07:34:59.694Z,19.33
2023-04-10T07:37:27.848Z,8.00
2023-04-10T07:39:56.319Z,16.67
2023-04-10T07:42:25.156Z,31.63
2023-04-10T07:44:54.834Z,16.33
2023-04-10T07:47:25.324Z,22.73
2023-04-10T07:49:53.654Z,20.27
2023-04-10T07:52:21.699Z,23.53
2023-04-10T07:55:05.248Z,27.13
2023-04-10T07:57:33.632Z,24.73
2023-04-10T08:00:06.984Z,26.27
2023-04-10T08:02:37.560Z,15.77
2023-04-10T08:05:06.324Z,26.40
2023-04-10T08:07:36.567Z,12.77
2023-04-10T08:10:04.950Z,21.13
2023-04-10T08:12:38.362Z,13.23
2023-04-10T08:15:09.041Z,15.77
2023-04-10T08:17:39.832Z,25.63
2023-04-10T08:20:13.791Z,27.83
2023-04-10T08:22:42.903Z,12.37
2023-04-10T08:25:11.704Z,26.13
2023-04-10T08:27:40.514Z,18.20
2023-04-10T08:30:11.107Z,22.00
2023-04-10T08:32:42.688Z,13.87
2023-04-10T08:35:11.049Z,26.07
2023-04-10T08:37:39.342Z,23.03
2023-04-10T08:40:08.612Z,29.17
2023-04-10T08:42:37.568Z,14.37
2023-04-10T08:45:06.095Z,23.47
2023-04-10T08:47:37.998Z,23.83
2023-04-10T08:50:09.044Z,21.10
2023-04-10T08:52:44.952Z,26.80
2023-04-10T08:55:17.357Z,21.93
2023-04-10T08:57:54.363Z,22.87
2023-04-10T09:00:31.652Z,20.93
2023-04-10T09:03:03.152Z,21.37
2023-04-10T09:05:31.781Z,22.13
2023-04-10T09:07:59.944Z,24.53
2023-04-10T09:10:28.230Z,16.10
2023-04-10T09:12:56.771Z,12.60
2023-04-10T09:15:25.137Z,18.27
2023-04-10T09:17:58.018Z,17.93
2023-04-10T09:20:30.019Z,15.73
2023-04-10T09:22:58.575Z,20.87
2023-04-10T09:25:34.934Z,13.07
2023-04-10T09:28:09.329Z,18.63
2023-04-10T09:30:40.604Z,27.07
2023-04-10T09:33:27.602Z,18.53
2023-04-10T09:36:00.048Z,19.17
2023-04-10T09:38:28.135Z,24.17
2023-04-10T09:41:08.020Z,21.23
2023-04-10T09:43:36.711Z,20.37
2023-04-10T09:46:05.092Z,20.50
2023-04-10T09:48:33.182Z,24.33
2023-04-10T09:51:03.289Z,11.00
2023-04-10T09:53:31.596Z,25.17
2023-04-10T09:56:00.086Z,18.47
2023-04-10T09:58:34.880Z,19.53
2023-04-10T10:01:03.252Z,12.70
2023-04-10T10:03:31.607Z,18.40
2023-04-10T10:06:02.367Z,21.70
2023-04-10T10:08:34.882Z,19.87
2023-04-10T10:11:10.208Z,21.00
2023-04-10T10:13:45.757Z,11.30
2023-04-10T10:16:19.410Z,23.10
2023-04-10T10:18:57.849Z,22.17
2023-04-10T10:21:28.377Z,17.93
2023-04-10T10:24:00.476Z,17.20
2023-04-10T10:26:29.514Z,15.83
2023-04-10T10:28:59.394Z,22.30
2023-04-10T10:31:32.747Z,13.17
2023-04-10T10:34:05.742Z,12.37
2023-04-10T10:36:33.963Z,20.27
2023-04-10T10:39:18.755Z,15.03
2023-04-10T10:41:54.452Z,18.60
2023-04-10T10:44:31.237Z,11.37
2023-04-10T10:47:08.798Z,16.57
2023-04-10T10:49:57.431Z,22.70
2023-04-10T10:52:48.177Z,20.23
2023-04-10T10:55:36.247Z,17.47
2023-04-10T10:58:08.253Z,18.53
2023-04-10T11:01:10.771Z,16.13
2023-04-10T11:03:39.649Z,19.77
2023-04-10T11:06:09.886Z,25.63
2023-04-10T11:08:46.160Z,17.83
2023-04-10T11:11:18.745Z,16.37
2023-04-10T11:14:19.187Z,10.03
2023-04-10T11:16:49.008Z,12.70
2023-04-10T11:19:22.732Z,17.63
2023-04-10T11:22:09.331Z,18.60
2023-04-10T11:24:54.237Z,16.77
2023-04-10T11:27:44.947Z,19.93
2023-04-10T11:30:35.679Z,10.63
2023-04-10T11:33:05.588Z,18.70
2023-04-10T11:35:34.902Z,13.07
2023-04-10T11:38:17.336Z,14.97
2023-04-10T11:40:55.980Z,11.43
2023-04-10T11:43:25.656Z,18.50
2023-04-10T11:46:01.677Z,15.83
2023-04-10T11:48:30.507Z,17.63
2023-04-10T11:51:00.141Z,14.53
2023-04-10T11:53:30.421Z,15.23
2023-04-10T11:55:59.006Z,18.07
2023-04-10T11:58:30.684Z,11.87
2023-04-10T12:01:03.070Z,13.40
2023-04-10T12:03:40.198Z,15.93
2023-04-10T12:06:10.784Z,7.83
2023-04-10T12:08:40.488Z,11.70
2023-04-10T12:11:10.162Z,14.47
2023-04-10T12:13:40.295Z,24.23
2023-04-10T12:16:12.037Z,10.40
2023-04-10T12:18:40.643Z,11.87
2023-04-10T12:21:09.342Z,7.47
2023-04-10T12:23:40.232Z,17.87
2023-04-10T12:26:14.358Z,9.40
2023-04-10T12:28:52.373Z,14.23
2023-04-10T12:31:28.275Z,17.43
2023-04-10T12:33:58.125Z,14.83
2023-04-10T12:36:29.436Z,21.63
2023-04-10T12:38:58.357Z,14.17
2023-04-10T12:41:27.706Z,11.23
2023-04-10T12:44:10.541Z,15.80
2023-04-10T12:46:39.185Z,13.23
2023-04-10T12:49:11.703Z,19.70
2023-04-10T12:51:43.614Z,19.67
2023-04-10T12:54:12.403Z,18.47
2023-04-10T12:56:44.089Z,19.97
2023-04-10T12:59:13.679Z,15.20
2023-04-10T13:01:41.894Z,12.17
2023-04-10T13:04:10.103Z,12.73
2023-04-10T13:06:44.327Z,16.10
2023-04-10T13:09:13.308Z,16.83
2023-04-10T13:11:45.915Z,21.70
2023-04-10T13:14:17.299Z,16.90
2023-04-10T13:16:45.464Z,13.07
2023-04-10T13:19:14.154Z,16.40
2023-04-10T13:21:42.129Z,14.90
2023-04-10T13:24:10.410Z,12.73
2023-04-10T13:26:38.527Z,18.10
2023-04-10T13:29:07.055Z,14.27
2023-04-10T13:31:36.774Z,9.40
2023-04-10T13:34:06.150Z,19.23
2023-04-10T13:36:37.483Z,15.43
2023-04-10T13:39:05.902Z,10.70
2023-04-10T13:41:34.155Z,18.20
2023-04-10T13:44:02.329Z,14.47
2023-04-10T13:46:30.327Z,17.10
2023-04-10T13:48:59.988Z,11.07
2023-04-10T13:51:29.821Z,13.00
2023-04-10T13:53:58.031Z,17.27
2023-04-10T13:56:26.781Z,20.50
2023-04-10T13:58:55.217Z,10.50
2023-04-10T14:01:26.565Z,22.07
2023-04-10T14:03:54.764Z,14.33
2023-04-10T14:06:37.028Z,16.20
2023-04-10T14:09:15.538Z,18.13
2023-04-10T14:11:59.559Z,14.83
2023-04-10T14:14:28.067Z,14.10
2023-04-10T14:16:57.637Z,9.70
2023-04-10T14:19:28.346Z,10.40
2023-04-10T14:22:09.058Z,10.03
2023-04-10T14:24:37.323Z,12.77
2023-04-10T14:27:06.933Z,11.67
2023-04-10T14:29:42.750Z,5.83
2023-04-10T14:32:23.865Z,15.97
2023-04-10T14:34:52.773Z,8.70
2023-04-10T14:37:22.550Z,14.23
2023-04-10T14:39:51.764Z,11.97
2023-04-10T14:42:19.990Z,9.43
2023-04-10T14:44:48.852Z,9.27
2023-04-10T14:47:17.495Z,9.17
2023-04-10T14:49:52.049Z,14.27
2023-04-10T14:52:21.935Z,9.37
2023-04-10T14:54:51.432Z,8.77
2023-04-10T14:57:19.643Z,6.20
2023-04-10T14:59:47.879Z,8.50
2023-04-10T15:02:16.382Z,14.07
2023-04-10T15:04:47.322Z,13.73
2023-04-10T15:07:16.092Z,11.07
2023-04-10T15:09:46.770Z,14.23
2023-04-10T15:12:15.172Z,13.23
2023-04-10T15:14:43.558Z,12.83
2023-04-10T15:17:11.563Z,7.87
2023-04-10T15:19:39.970Z,15.13
2023-04-10T15:22:15.177Z,16.03
2023-04-10T15:24:49.965Z,17.03
2023-04-10T15:27:22.486Z,12.33
2023-04-10T15:29:50.955Z,12.63
2023-04-10T15:32:19.462Z,12.27
2023-04-10T15:34:47.608Z,11.80
2023-04-10T15:37:15.971Z,8.43
2023-04-10T15:39:44.076Z,12.77
2023-04-10T15:42:12.780Z,20.57
2023-04-10T15:44:42.505Z,15.50
2023-04-10T15:47:10.572Z,10.87
2023-04-10T15:49:39.425Z,8.43
2023-04-10T15:52:08.031Z,13.50
2023-04-10T15:54:36.619Z,23.60
2023-04-10T15:57:05.038Z,19.60
2023-04-10T15:59:34.474Z,19.23
2023-04-10T16:02:04.571Z,18.20
2023-04-10T16:04:32.944Z,20.13
2023-04-10T16:07:02.750Z,13.90
2023-04-10T16:09:31.495Z,15.97
2023-04-10T16:11:59.805Z,14.77
2023-04-10T16:14:28.224Z,20.97
2023-04-10T16:16:59.446Z,17.87
2023-04-10T16:19:31.479Z,12.27
2023-04-10T16:22:00.357Z,14.43
2023-04-10T16:24:30.758Z,12.97
2023-04-10T16:26:59.018Z,14.63
2023-04-10T16:29:27.398Z,13.20
2023-04-10T16:31:56.116Z,10.30
2023-04-10T16:34:37.175Z,21.40
2023-04-10T16:37:07.126Z,12.50
2023-04-10T16:39:35.644Z,8.63
2023-04-10T16:42:04.967Z,15.33
2023-04-10T16:44:33.894Z,9.87
2023-04-10T16:47:02.278Z,14.60
2023-04-10T16:49:30.913Z,17.00
2023-04-10T16:51:59.066Z,18.33
2023-04-10T16:54:28.778Z,16.80
2023-04-10T16:56:57.209Z,15.60
2023-04-10T16:59:25.853Z,17.53
2023-04-10T17:01:55.465Z,14.43
2023-04-10T17:04:24.056Z,16.93
2023-04-10T17:06:52.572Z,17.10
2023-04-10T17:09:21.562Z,17.23
2023-04-10T17:11:53.446Z,15.60
2023-04-10T17:14:21.860Z,21.33
2023-04-10T17:16:50.003Z,18.90
2023-04-10T17:19:18.679Z,10.53
2023-04-10T17:21:46.682Z,13.83
2023-04-10T17:24:14.722Z,9.97
2023-04-10T17:26:42.929Z,10.83
2023-04-10T17:29:12.462Z,9.77
2023-04-10T17:31:41.805Z,10.97
2023-04-10T17:34:10.086Z,11.43
2023-04-10T17:36:39.343Z,12.67
2023-04-10T17:39:07.897Z,20.90
2023-04-10T17:41:36.075Z,12.63
2023-04-10T17:44:05.786Z,11.43
2023-04-10T17:46:35.847Z,17.87
2023-04-10T17:49:07.904Z,19.23
2023-04-10T17:51:35.972Z,15.50
2023-04-10T17:54:33.852Z,13.43
2023-04-10T17:57:03.824Z,10.27
2023-04-10T17:59:32.345Z,11.20
2023-04-10T18:02:02.579Z,13.07
2023-04-10T18:04:32.013Z,12.83
2023-04-10T18:07:00.346Z,9.07
2023-04-10T18:09:32.779Z,15.60
2023-04-10T18:12:01.554Z,20.17
2023-04-10T18:14:33.138Z,17.00
2023-04-10T18:17:03.000Z,16.80
2023-04-10T18:19:31.633Z,13.30
2023-04-10T18:22:02.602Z,18.13
2023-04-10T18:24:31.000Z,15.47
2023-04-10T18:26:59.159Z,11.77
2023-04-10T18:29:27.616Z,14.03
2023-04-10T18:31:55.849Z,14.60
2023-04-10T18:34:25.843Z,15.10
2023-04-10T18:36:55.738Z,18.30
2023-04-10T18:39:24.162Z,21.87
2023-04-10T18:41:52.299Z,20.10
2023-04-10T18:44:20.358Z,21.87
2023-04-10T18:46:53.985Z,13.40
2023-04-10T18:49:31.316Z,13.03
2023-04-10T18:51:59.382Z,22.00
2023-04-10T18:54:28.212Z,17.23
2023-04-10T18:56:57.990Z,16.63
2023-04-10T18:59:26.129Z,9.17
2023-04-10T19:01:54.292Z,11.43
2023-04-10T19:04:22.523Z,16.77
2023-04-10T19:06:52.117Z,17.23
2023-04-10T19:09:20.260Z,14.87
2023-04-10T19:11:48.392Z,12.60
2023-04-10T19:14:16.608Z,16.00
2023-04-10T19:16:44.806Z,16.47
2023-04-10T19:19:13.097Z,12.23
2023-04-10T19:21:41.652Z,22.53
2023-04-10T19:24:12.549Z,15.23
2023-04-10T19:26:41.204Z,15.63
2023-04-10T19:29:10.115Z,12.87
2023-04-10T19:31:38.179Z,15.27
2023-04-10T19:34:09.397Z,14.63
2023-04-10T19:36:38.562Z,13.00
2023-04-10T19:39:06.910Z,12.03
2023-04-10T19:41:41.809Z,21.60
2023-04-10T19:44:10.792Z,14.20
2023-04-10T19:46:39.134Z,13.23
2023-04-10T19:49:11.642Z,8.13
2023-04-10T19:51:39.792Z,9.53
2023-04-10T19:54:08.383Z,14.27
2023-04-10T19:56:38.308Z,11.37
2023-04-10T19:59:06.532Z,14.43
2023-04-10T20:01:35.590Z,12.00
2023-04-10T20:04:03.832Z,7.63
2023-04-10T20:06:31.995Z,10.10
2023-04-10T20:09:00.134Z,14.60
2023-04-10T20:11:30.775Z,13.50
2023-04-10T20:14:00.410Z,16.40
2023-04-10T20:16:28.625Z,10.13
2023-04-10T20:18:57.513Z,10.40
2023-04-10T20:21:26.208Z,12.10
2023-04-10T20:23:57.762Z,12.63
2023-04-10T20:26:26.983Z,11.90
2023-04-10T20:28:55.593Z,17.33
2023-04-10T20:31:25.847Z,10.50
2023-04-10T20:33:54.558Z,8.37
2023-04-10T20:36:22.920Z,10.67
2023-04-10T20:38:51.135Z,11.23
2023-04-10T20:41:19.329Z,10.50
2023-04-10T20:43:47.686Z,8.13
2023-04-10T20:46:15.852Z,23.20
2023-04-10T20:48:45.526Z,13.80
2023-04-10T20:51:13.821Z,8.57
2023-04-10T20:53:42.014Z,13.93
2023-04-10T20:56:10.910Z,5.63
2023-04-10T20:58:39.148Z,10.60
2023-04-10T21:01:10.556Z,8.57
2023-04-10T21:03:39.121Z,7.23
2023-04-10T21:06:11.412Z,12.03
2023-04-10T21:08:39.719Z,11.97
2023-04-10T21:11:08.596Z,9.03
2023-04-10T21:13:38.495Z,15.67
2023-04-10T21:16:08.207Z,9.97
2023-04-10T21:18:36.474Z,9.87
2023-04-10T21:21:07.168Z,11.77
2023-04-10T21:23:41.567Z,12.00
2023-04-10T21:26:10.278Z,13.53
2023-04-10T21:28:38.671Z,7.53
2023-04-10T21:31:06.850Z,12.63
2023-04-10T21:33:34.925Z,16.10
2023-04-10T21:36:02.989Z,12.20
2023-04-10T21:38:31.147Z,13.90
2023-04-10T21:41:03.584Z,9.57
2023-04-10T21:43:31.990Z,15.17
2023-04-10T21:46:02.169Z,7.50
2023-04-10T21:48:31.351Z,6.70
2023-04-10T21:50:59.454Z,14.43
2023-04-10T21:53:27.604Z,5.60
2023-04-10T21:55:55.701Z,9.70
2023-04-10T21:58:25.301Z,11.77
2023-04-10T22:00:55.171Z,4.60
2023-04-10T22:03:24.172Z,13.80
2023-04-10T22:05:52.484Z,21.77
2023-04-10T22:08:22.180Z,13.03
2023-04-10T22:10:51.404Z,13.07
2023-04-10T22:13:30.335Z,13.97
2023-04-10T22:16:02.506Z,12.50
2023-04-10T22:18:30.779Z,13.37
2023-04-10T22:20:59.230Z,18.37
2023-04-10T22:23:27.405Z,8.70
2023-04-10T22:25:55.508Z,12.30
2023-04-10T22:28:23.789Z,11.87
2023-04-10T22:30:51.876Z,14.40
2023-04-10T22:33:21.521Z,18.93
2023-04-10T22:35:49.524Z,14.83
2023-04-10T22:38:17.610Z,12.37
2023-04-10T22:40:45.688Z,13.93
2023-04-10T22:43:13.828Z,18.03
2023-04-10T22:45:43.573Z,14.70
2023-04-10T22:48:11.773Z,8.90
2023-04-10T22:50:41.370Z,15.20
2023-04-10T22:53:11.670Z,24.23
2023-04-10T22:55:40.125Z,12.37
2023-04-10T22:58:08.902Z,16.50
2023-04-10T23:00:37.158Z,22.83
2023-04-10T23:03:05.534Z,16.30
2023-04-10T23:05:34.385Z,10.90
2023-04-10T23:08:04.093Z,9.60
2023-04-10T23:10:32.138Z,13.10
2023-04-10T23:13:00.174Z,11.23
2023-04-10T23:15:28.151Z,15.27
2023-04-10T23:17:56.424Z,13.43
2023-04-10T23:20:24.619Z,11.57
2023-04-10T23:22:52.976Z,17.57
2023-04-10T23:25:22.895Z,13.40
2023-04-10T23:27:52.689Z,14.63
2023-04-10T23:30:20.729Z,10.00
2023-04-10T23:32:48.930Z,9.07
2023-04-10T23:35:17.258Z,19.97
2023-04-10T23:37:45.364Z,21.67
2023-04-10T23:40:14.225Z,11.57
2023-04-10T23:42:45.230Z,5.17
2023-04-10T23:45:13.971Z,11.33
2023-04-10T23:47:42.048Z,8.43
2023-04-10T23:50:11.081Z,16.70
2023-04-10T23:52:39.129Z,8.10
2023-04-10T23:55:08.093Z,15.63
2023-04-10T23:57:36.170Z,11.20
